地図

経路データ

SID SEASON NUMBER BASIN SUBBASIN NAME ISO_TIME NATURE LAT LON WMO_WIND WMO_PRES WMO_AGENCY TRACK_TYPE DIST2LAND LANDFALL IFLAG USA_AGENCY USA_ATCF_ID USA_LAT USA_LON USA_RECORD USA_STATUS USA_WIND USA_PRES USA_SSHS USA_R34_NE USA_R34_SE USA_R34_SW USA_R34_NW USA_R50_NE USA_R50_SE USA_R50_SW USA_R50_NW USA_R64_NE USA_R64_SE USA_R64_SW USA_R64_NW USA_POCI USA_ROCI USA_RMW USA_EYE TOKYO_LAT TOKYO_LON TOKYO_GRADE TOKYO_WIND TOKYO_PRES TOKYO_R50_DIR TOKYO_R50_LONG TOKYO_R50_SHORT TOKYO_R30_DIR TOKYO_R30_LONG TOKYO_R30_SHORT TOKYO_LAND CMA_LAT CMA_LON CMA_CAT CMA_WIND CMA_PRES HKO_LAT HKO_LON HKO_CAT HKO_WIND HKO_PRES NEWDELHI_LAT NEWDELHI_LON NEWDELHI_GRADE NEWDELHI_WIND NEWDELHI_PRES NEWDELHI_CI NEWDELHI_DP NEWDELHI_POCI REUNION_LAT REUNION_LON REUNION_TYPE REUNION_WIND REUNION_PRES REUNION_TNUM REUNION_CI REUNION_RMW REUNION_R34_NE REUNION_R34_SE REUNION_R34_SW REUNION_R34_NW REUNION_R50_NE REUNION_R50_SE REUNION_R50_SW REUNION_R50_NW REUNION_R64_NE REUNION_R64_SE REUNION_R64_SW REUNION_R64_NW BOM_LAT BOM_LON BOM_TYPE BOM_WIND BOM_PRES BOM_TNUM BOM_CI BOM_RMW BOM_R34_NE BOM_R34_SE BOM_R34_SW BOM_R34_NW BOM_R50_NE BOM_R50_SE BOM_R50_SW BOM_R50_NW BOM_R64_NE BOM_R64_SE BOM_R64_SW BOM_R64_NW BOM_ROCI BOM_POCI BOM_EYE BOM_POS_METHOD BOM_PRES_METHOD NADI_LAT NADI_LON NADI_CAT NADI_WIND NADI_PRES WELLINGTON_LAT WELLINGTON_LON WELLINGTON_WIND WELLINGTON_PRES DS824_LAT DS824_LON DS824_STAGE DS824_WIND DS824_PRES TD9636_LAT TD9636_LON TD9636_STAGE TD9636_WIND TD9636_PRES TD9635_LAT TD9635_LON TD9635_WIND TD9635_PRES TD9635_ROCI NEUMANN_LAT NEUMANN_LON NEUMANN_CLASS NEUMANN_WIND NEUMANN_PRES MLC_LAT MLC_LON MLC_CLASS MLC_WIND MLC_PRES USA_GUST BOM_GUST BOM_GUST_PER REUNION_GUST REUNION_GUST_PER USA_SEAHGT USA_SEARAD_NE USA_SEARAD_SE USA_SEARAD_SW USA_SEARAD_NW STORM_SPEED STORM_DIR
1928081S07459 1928 22 SI WA NOT_NAMED 1928-03-21 06:00:00 NR -6.70000 99.3000 spur-split 449 449 _____O________ -1 -6.70000 99.3000 99 9.90000 1 273
1928081S07459 1928 22 SI WA NOT_NAMED 1928-03-21 09:00:00 NR -6.69773 99.2559 spur-split 449 449 _____P________ -1 -6.69773 99.2559 99 1 268
1928081S07459 1928 22 SI WA NOT_NAMED 1928-03-21 12:00:00 NR -6.70402 99.2041 spur-split 457 457 _____P________ -1 -6.70402 99.2041 99 1 256
1928081S07459 1928 22 SI WA NOT_NAMED 1928-03-21 15:00:00 NR -6.72741 99.1370 spur-split 466 466 _____P________ -1 -6.72741 99.1370 99 2 245
1928081S07459 1928 22 SI WA NOT_NAMED 1928-03-21 18:00:00 NR -6.77645 99.0467 spur-split 481 481 _____P________ -1 -6.77645 99.0467 99 2 238
1928081S07459 1928 22 SI WA NOT_NAMED 1928-03-21 21:00:00 NR -6.85970 98.9257 spur-split 497 497 _____P________ -1 -6.85970 98.9257 99 3 233
1928081S07459 1928 22 SI WA NOT_NAMED 1928-03-22 00:00:00 NR -6.98568 98.7662 spur-split 513 513 _____P________ -1 -6.98568 98.7662 99 5 230
1928081S07459 1928 22 SI WA NOT_NAMED 1928-03-22 03:00:00 NR -7.16294 98.5602 spur-split 544 544 _____P________ -1 -7.16294 98.5602 99 6 228
1928081S07459 1928 22 SI WA NOT_NAMED 1928-03-22 06:00:00 NR -7.40000 98.3000 spur-split 584 584 _____O________ -1 -7.40000 98.3000 99 9.90000 8 227
1928081S07459 1928 22 SI WA NOT_NAMED 1928-03-22 09:00:00 NR -7.70173 97.9818 spur-split 631 631 _____P________ -1 -7.70173 97.9818 99 9 226
1928081S07459 1928 22 SI WA NOT_NAMED 1928-03-22 12:00:00 NR -8.05833 97.6189 spur-split 693 693 _____P________ -1 -8.05833 97.6189 99 11 225
1928081S07459 1928 22 SI WA NOT_NAMED 1928-03-22 15:00:00 NR -8.45636 97.2290 spur-split 756 756 _____P________ -1 -8.45636 97.2290 99 11 223
1928081S07459 1928 22 SI WA NOT_NAMED 1928-03-22 18:00:00 NR -8.88240 96.8298 spur-split 819 819 _____P________ -1 -8.88240 96.8298 99 12 222
1928081S07459 1928 22 SI WA NOT_NAMED 1928-03-22 21:00:00 NR -9.32304 96.4392 spur-split 881 881 _____P________ -1 -9.32304 96.4392 99 12 220
1928081S07459 1928 22 SI WA NOT_NAMED 1928-03-23 00:00:00 NR -9.76498 96.0752 spur-split 944 944 _____P________ -1 -9.76498 96.0752 99 11 218
1928081S07459 1928 22 SI WA NOT_NAMED 1928-03-23 03:00:00 NR -10.1950 95.7561 spur-split 998 998 _____P________ -1 -10.1950 95.7561 99 10 214
1928081S07459 1928 22 SI WA NOT_NAMED 1928-03-23 06:00:00 NR -10.6000 95.5000 spur-split 1053 1053 _____O________ -1 -10.6000 95.5000 99 9.90000 9 210
1928081S07459 1928 22 SI WA NOT_NAMED 1928-03-23 09:00:00 NR -10.9303 95.3178 spur-split 1092 1092 _____P________ -1 -10.9303 95.3178 99 7 205
1928081S07459 1928 22 SI WA NOT_NAMED 1928-03-23 12:00:00 NR -11.2420 95.1888 spur-split 1123 1123 _____P________ -1 -11.2420 95.1888 99 6 198
1928081S07459 1928 22 SI WA NOT_NAMED 1928-03-23 15:00:00 NR -11.5384 95.1122 spur-split 1155 1155 _____P________ -1 -11.5384 95.1122 99 6 189
1928081S07459 1928 22 SI WA NOT_NAMED 1928-03-23 18:00:00 NR -11.8225 95.0878 spur-split 1180 1180 _____P________ -1 -11.8225 95.0878 99 6 178
1928081S07459 1928 22 SI WA NOT_NAMED 1928-03-23 21:00:00 NR -12.0977 95.1148 spur-split 1204 1204 _____P________ -1 -12.0977 95.1148 99 6 169
1928081S07459 1928 22 SI WA NOT_NAMED 1928-03-24 00:00:00 NR -12.3669 95.1929 spur-split 1223 1223 _____P________ -1 -12.3669 95.1929 99 6 159
1928081S07459 1928 22 SI WA NOT_NAMED 1928-03-24 03:00:00 NR -12.6333 95.3214 spur-split 1233 1233 _____P________ -1 -12.6333 95.3214 99 6 151
1928081S07459 1928 22 SI WA NOT_NAMED 1928-03-24 06:00:00 NR -12.9000 95.5000 spur-split 1243 1243 _____O________ -1 -12.9000 95.5000 99 9.90000 7 146
1928081S07459 1928 22 SI WA NOT_NAMED 1928-03-24 09:00:00 NR -13.2187 95.7331 spur-split 1255 1255 _____P________ -1 -13.2187 95.7331 99 8 141
1928081S07459 1928 22 SI WA NOT_NAMED 1928-03-24 12:00:00 NR -13.5401 96.0262 spur-split 1255 1250 _____P________ -1 -13.5401 96.0262 99 9 136
1928081S07459 1928 22 SI WA NOT_NAMED 1928-03-24 15:00:00 NR -13.8564 96.3644 spur-split 1248 1237 _____P________ -1 -13.8564 96.3644 99 9 132
1928081S07459 1928 22 SI WA NOT_NAMED 1928-03-24 18:00:00 NR -14.1602 96.7327 spur-split 1245 1228 _____P________ -1 -14.1602 96.7327 99 9 129
1928081S07459 1928 22 SI WA NOT_NAMED 1928-03-24 21:00:00 NR -14.4438 97.1157 spur-split 1228 1220 _____P________ -1 -14.4438 97.1157 99 9 126
1928081S07459 1928 22 SI WA NOT_NAMED 1928-03-25 00:00:00 NR -14.6998 97.4983 spur-split 1220 1213 _____P________ -1 -14.6998 97.4983 99 9 123
1928081S07459 1928 22 SI WA NOT_NAMED 1928-03-25 03:00:00 NR -14.9209 97.8649 spur-split 1207 1201 _____P________ -1 -14.9209 97.8649 99 8 121
1928081S07459 1928 22 SI WA NOT_NAMED 1928-03-25 06:00:00 NR -15.1000 98.2000 spur-split 1203 1191 _____O________ -1 -15.1000 98.2000 99 9.90000 7 117
1928081S07459 1928 22 SI WA NOT_NAMED 1928-03-25 09:00:00 NR -15.2321 98.4915 spur-split 1191 1187 _____P________ -1 -15.2321 98.4915 99 6 113
1928081S07459 1928 22 SI WA NOT_NAMED 1928-03-25 12:00:00 NR -15.3212 98.7415 spur-split 1187 1180 _____P________ -1 -15.3212 98.7415 99 5 108
1928081S07459 1928 22 SI WA NOT_NAMED 1928-03-25 15:00:00 NR -15.3736 98.9559 spur-split 1176 1170 _____P________ -1 -15.3736 98.9559 99 4 101
1928081S07459 1928 22 SI WA NOT_NAMED 1928-03-25 18:00:00 NR -15.3955 99.1406 spur-split 1170 1158 _____P________ -1 -15.3955 99.1406 99 3 93
1928081S07459 1928 22 SI WA NOT_NAMED 1928-03-25 21:00:00 NR -15.3930 99.3014 spur-split 1158 1152 _____P________ -1 -15.3930 99.3014 99 3 85
1928081S07459 1928 22 SI WA NOT_NAMED 1928-03-26 00:00:00 NR -15.3722 99.4442 spur-split 1152 1131 _____P________ -1 -15.3722 99.4442 99 3 79
1928081S07459 1928 22 SI WA NOT_NAMED 1928-03-26 03:00:00 NR -15.3391 99.5751 spur-split 1131 1125 _____P________ -1 -15.3391 99.5751 99 3 74
1928081S07459 1928 22 SI WA NOT_NAMED 1928-03-26 06:00:00 NR -15.3000 99.7000 spur-split 1125 _____O________ -1 -15.3000 99.7000 99 9.90000 3 72

IBTrACS Databaseについて

本データベースは、米国NOAAが公開する1842年以降の世界の熱帯低気圧のベストトラックデータアーカイブInternational Best Track Archive for Climate Stewardship (IBTrACS)を、ウェブで閲覧しやすい形式に変換したものです。

最終更新日:2021-10-21